Time;durP1;ratioP1;P1;durP2;ratioP2;P2;SDS_P1;SDS_P2;PMS_P1;PMS_P2;Temp;Humidity;BMP_temperature;BMP_pressure;BME280_temperature;BME280_humidity;BME280_pressure;Samples;Min_cycle;Max_cycle;Signal;HPM_P1;HPM_P2
2022/11/07 00:01:57;;;;;;;61.67;25.53;;;7.40;99.90;;;;;;4406041;28;657854;-68
2022/11/07 00:04:44;;;;;;;53.77;23.57;;;7.40;99.90;;;;;;4397131;28;657352;-68
2022/11/07 00:07:32;;;;;;;56.77;23.43;;;7.40;99.90;;;;;;4378580;28;657675;-68
2022/11/07 00:10:20;;;;;;;55.53;22.57;;;7.40;99.90;;;;;;4379241;28;657055;-68
2022/11/07 00:13:07;;;;;;;62.93;23.17;;;7.40;99.90;;;;;;4358887;28;658499;-68
2022/11/07 00:15:54;;;;;;;55.93;22.70;;;7.30;99.90;;;;;;4374638;28;659256;-68
2022/11/07 00:18:41;;;;;;;57.07;23.40;;;7.30;99.90;;;;;;4365956;28;657831;-67
2022/11/07 00:21:29;;;;;;;54.00;22.93;;;7.30;99.90;;;;;;4382997;28;657963;-68
2022/11/07 00:24:16;;;;;;;54.63;22.33;;;7.30;99.90;;;;;;4364442;28;657589;-68
2022/11/07 00:27:05;;;;;;;53.77;22.20;;;7.20;99.90;;;;;;4388873;28;657495;-68
2022/11/07 00:29:52;;;;;;;55.73;21.27;;;7.20;99.90;;;;;;4359247;28;658535;-67
2022/11/07 00:32:39;;;;;;;50.87;22.33;;;7.20;99.90;;;;;;4373696;28;657940;-68
2022/11/07 00:35:26;;;;;;;47.60;20.87;;;7.20;99.90;;;;;;4355298;28;659050;-68
2022/11/07 00:38:13;;;;;;;52.77;22.17;;;7.20;99.90;;;;;;4375326;28;659513;-68
2022/11/07 00:41:02;;;;;;;54.30;21.67;;;7.10;99.90;;;;;;4370878;28;657488;-68
2022/11/07 00:43:50;;;;;;;55.93;21.63;;;7.10;99.90;;;;;;4389935;28;658165;-68
2022/11/07 00:46:37;;;;;;;53.00;21.77;;;7.10;99.90;;;;;;4372116;28;658377;-68
2022/11/07 00:49:24;;;;;;;58.63;22.83;;;7.20;99.90;;;;;;4393157;28;657596;-68
2022/11/07 00:52:12;;;;;;;53.20;21.40;;;7.20;99.90;;;;;;4373470;28;657815;-67
2022/11/07 00:54:59;;;;;;;52.73;23.10;;;7.20;99.90;;;;;;4383201;28;657399;-68
2022/11/07 00:57:46;;;;;;;54.17;22.03;;;7.30;99.90;;;;;;4359799;28;657498;-67
2022/11/07 01:00:34;;;;;;;57.50;22.57;;;7.20;99.90;;;;;;4382189;28;658192;-69
2022/11/07 01:06:27;;;;;;;59.27;22.87;;;7.30;99.90;;;;;;4340997;28;658701;-67
2022/11/07 01:09:16;;;;;;;47.80;21.70;;;7.30;99.90;;;;;;4377871;28;657295;-68
2022/11/07 01:12:04;;;;;;;51.63;24.00;;;7.30;99.90;;;;;;4385078;28;658977;-68
2022/11/07 01:14:51;;;;;;;47.33;21.17;;;7.30;99.90;;;;;;4373781;28;657757;-68
2022/11/07 01:17:40;;;;;;;45.53;20.13;;;7.30;99.90;;;;;;4369346;28;658293;-68
2022/11/07 01:20:27;;;;;;;48.97;21.63;;;7.40;99.90;;;;;;4382274;28;658318;-68
2022/11/07 01:23:14;;;;;;;52.30;21.57;;;7.40;99.90;;;;;;4398167;28;657716;-68
2022/11/07 01:26:04;;;;;;;48.80;21.80;;;7.30;99.90;;;;;;4379892;28;657791;-67
2022/11/07 01:28:51;;;;;;;48.10;21.00;;;7.20;99.90;;;;;;4385897;28;657991;-69
2022/11/07 01:31:38;;;;;;;51.33;21.30;;;7.20;99.90;;;;;;4399421;28;658388;-68
2022/11/07 01:34:27;;;;;;;47.20;21.47;;;7.20;99.90;;;;;;4374499;28;657417;-68
2022/11/07 01:37:14;;;;;;;45.57;20.33;;;7.20;99.90;;;;;;4395078;28;658506;-68
2022/11/07 01:40:01;;;;;;;47.03;20.93;;;7.20;99.90;;;;;;4386336;28;657782;-67
2022/11/07 01:42:48;;;;;;;45.40;21.13;;;7.20;99.90;;;;;;4409467;28;658085;-68
2022/11/07 01:45:37;;;;;;;50.43;21.63;;;7.20;99.90;;;;;;4388984;28;658113;-68
2022/11/07 01:48:24;;;;;;;54.47;23.50;;;7.20;99.90;;;;;;4408614;28;657803;-68
2022/11/07 01:51:12;;;;;;;42.50;20.37;;;7.20;99.90;;;;;;4394339;28;657518;-68
2022/11/07 01:54:00;;;;;;;44.77;19.30;;;7.20;99.90;;;;;;4407163;28;658114;-68
2022/11/07 01:56:47;;;;;;;44.80;20.30;;;7.30;99.90;;;;;;4409130;28;658249;-68
2022/11/07 01:59:35;;;;;;;43.70;19.23;;;7.30;99.90;;;;;;4403509;28;657478;-68
2022/11/07 02:02:23;;;;;;;42.10;19.90;;;7.30;99.90;;;;;;4412592;28;658193;-68
2022/11/07 02:05:10;;;;;;;42.07;18.00;;;7.40;99.90;;;;;;4395250;28;658518;-68
2022/11/07 02:07:59;;;;;;;42.43;17.43;;;7.30;99.90;;;;;;4407629;28;658443;-68
2022/11/07 02:10:46;;;;;;;43.10;18.37;;;7.30;99.90;;;;;;4389163;28;657520;-68
2022/11/07 02:13:33;;;;;;;42.67;18.07;;;7.40;99.90;;;;;;4406415;28;657709;-68
2022/11/07 02:16:20;;;;;;;45.83;18.40;;;7.40;99.90;;;;;;4397079;28;658059;-74
2022/11/07 02:19:10;;;;;;;48.47;20.90;;;7.40;99.90;;;;;;4412757;28;658456;-68
2022/11/07 02:21:59;;;;;;;45.47;19.47;;;7.50;99.90;;;;;;4386613;28;658300;-67
2022/11/07 02:24:49;;;;;;;47.53;20.03;;;7.50;99.90;;;;;;4388161;28;657662;-68
2022/11/07 02:27:36;;;;;;;52.40;22.50;;;7.50;99.90;;;;;;4390147;28;658261;-68
2022/11/07 02:30:24;;;;;;;52.90;21.20;;;7.50;99.90;;;;;;4409691;28;658716;-68
2022/11/07 02:33:18;;;;;;;52.50;23.17;;;7.50;99.90;;;;;;4390384;28;658080;-68
2022/11/07 02:36:06;;;;;;;54.27;21.97;;;7.50;99.90;;;;;;4372613;28;657958;-67
2022/11/07 02:38:56;;;;;;;49.97;21.73;;;7.50;99.90;;;;;;4413737;28;658565;-68
2022/11/07 02:41:44;;;;;;;54.50;22.70;;;7.50;99.90;;;;;;4395553;28;658116;-69
2022/11/07 02:44:31;;;;;;;55.93;22.40;;;7.50;99.90;;;;;;4398054;28;657798;-68
2022/11/07 02:47:19;;;;;;;54.53;21.33;;;7.50;99.90;;;;;;4416150;28;657580;-68
2022/11/07 02:50:07;;;;;;;55.10;21.70;;;7.50;99.90;;;;;;4398028;28;657551;-68
2022/11/07 02:52:54;;;;;;;50.13;21.07;;;7.50;99.90;;;;;;4416573;28;657844;-69
2022/11/07 02:55:41;;;;;;;51.90;21.40;;;7.40;99.90;;;;;;4397847;28;658044;-68
2022/11/07 02:58:30;;;;;;;47.60;21.27;;;7.40;99.90;;;;;;4405147;28;658438;-68
2022/11/07 03:01:17;;;;;;;58.03;22.40;;;7.30;99.90;;;;;;4379797;28;658338;-68
2022/11/07 03:04:04;;;;;;;56.73;21.10;;;7.30;99.90;;;;;;4398083;28;657691;-68
2022/11/07 03:06:52;;;;;;;63.43;24.43;;;7.30;99.90;;;;;;4379397;28;658377;-68
2022/11/07 03:09:39;;;;;;;53.33;21.67;;;7.30;99.90;;;;;;4401463;28;657308;-69
2022/11/07 03:12:26;;;;;;;53.37;22.47;;;7.30;99.90;;;;;;4375887;28;657937;-67
2022/11/07 03:15:15;;;;;;;54.00;21.80;;;7.30;99.90;;;;;;4398676;28;657987;-67
2022/11/07 03:18:02;;;;;;;54.00;21.30;;;7.30;99.90;;;;;;4379085;28;658233;-68
2022/11/07 03:20:49;;;;;;;53.73;21.17;;;7.20;99.90;;;;;;4397100;28;657210;-69
2022/11/07 03:23:36;;;;;;;56.30;21.07;;;7.30;99.90;;;;;;4379424;28;657836;-68
2022/11/07 03:26:23;;;;;;;44.17;20.50;;;7.30;99.90;;;;;;4398153;28;658755;-68
2022/11/07 03:29:10;;;;;;;48.93;20.07;;;7.30;99.90;;;;;;4378913;28;657410;-67
2022/11/07 03:31:59;;;;;;;48.47;19.37;;;7.40;99.90;;;;;;4398153;28;658398;-68
2022/11/07 03:34:46;;;;;;;45.47;19.23;;;7.40;99.90;;;;;;4379157;28;657670;-68
2022/11/07 03:37:33;;;;;;;50.73;20.27;;;7.30;99.90;;;;;;4397499;28;658459;-68
2022/11/07 03:40:20;;;;;;;46.80;19.63;;;7.30;99.90;;;;;;4378637;28;657535;-68
2022/11/07 03:43:07;;;;;;;49.03;19.93;;;7.40;99.90;;;;;;4401774;28;658269;-68
2022/11/07 03:45:54;;;;;;;48.00;20.60;;;7.40;99.90;;;;;;4397421;28;657488;-69
2022/11/07 03:48:43;;;;;;;41.93;19.63;;;7.50;99.90;;;;;;4379058;28;659117;-68
2022/11/07 03:51:30;;;;;;;38.50;18.47;;;7.50;99.90;;;;;;4378362;28;657459;-67
2022/11/07 03:54:17;;;;;;;41.20;18.20;;;7.50;99.90;;;;;;4401620;28;657247;-68
2022/11/07 03:57:04;;;;;;;49.13;21.60;;;7.50;99.90;;;;;;4397069;28;657702;-69
2022/11/07 03:59:52;;;;;;;40.37;18.23;;;7.50;99.90;;;;;;4380684;28;658475;-68
2022/11/07 04:02:39;;;;;;;39.97;18.37;;;7.50;99.90;;;;;;4403064;28;657720;-68
2022/11/07 04:05:27;;;;;;;45.87;20.73;;;7.60;99.90;;;;;;4379381;28;657667;-68
2022/11/07 04:08:15;;;;;;;41.30;18.23;;;7.50;99.90;;;;;;4393772;28;657537;-68
2022/11/07 04:11:02;;;;;;;36.17;17.23;;;7.50;99.90;;;;;;4403203;28;658319;-68
2022/11/07 04:19:59;;;;;;;37.30;17.57;;;7.60;99.90;;;;;;4376372;28;657802;-68
2022/11/07 04:22:47;;;;;;;37.47;17.10;;;7.70;99.90;;;;;;4380310;28;657504;-68
2022/11/07 04:28:40;;;;;;;33.22;15.35;;;7.70;99.90;;;;;;4371985;28;657876;-67
2022/11/07 04:31:27;;;;;;;31.13;14.90;;;7.80;99.90;;;;;;4398806;28;658688;-68
2022/11/07 04:34:14;;;;;;;30.13;15.10;;;7.80;99.90;;;;;;4398411;28;657267;-68
2022/11/07 04:37:02;;;;;;;34.70;16.53;;;7.80;99.90;;;;;;4379885;28;658700;-68
2022/11/07 04:39:50;;;;;;;38.73;17.80;;;7.80;99.90;;;;;;4399405;28;657835;-69
2022/11/07 04:42:37;;;;;;;39.60;18.53;;;7.80;99.90;;;;;;4394717;28;657973;-68
2022/11/07 04:45:25;;;;;;;34.57;16.03;;;7.80;99.90;;;;;;4414895;28;657849;-68
2022/11/07 04:48:12;;;;;;;31.57;16.10;;;7.80;99.90;;;;;;4392298;28;659135;-68
2022/11/07 04:50:59;;;;;;;36.30;17.10;;;7.80;99.90;;;;;;4414513;28;658303;-69
2022/11/07 04:53:46;;;;;;;37.47;17.30;;;7.80;99.90;;;;;;4395067;28;657888;-68
2022/11/07 04:56:35;;;;;;;36.57;16.57;;;7.70;99.90;;;;;;4413912;28;658622;-69
2022/11/07 04:59:22;;;;;;;40.50;20.27;;;7.80;99.90;;;;;;4362152;28;658541;-68
2022/11/07 05:02:09;;;;;;;36.37;17.73;;;7.80;99.90;;;;;;4381039;28;657698;-69
2022/11/07 05:04:57;;;;;;;40.10;17.53;;;7.90;99.90;;;;;;4362509;28;658821;-68
2022/11/07 05:07:44;;;;;;;36.17;17.43;;;7.80;99.90;;;;;;4381284;28;658138;-68
2022/11/07 05:10:31;;;;;;;39.37;17.60;;;7.80;99.90;;;;;;4360577;28;657499;-68
2022/11/07 05:13:19;;;;;;;35.70;15.33;;;7.80;99.90;;;;;;4380907;28;658446;-68
2022/11/07 05:16:09;;;;;;;34.40;16.63;;;7.80;99.90;;;;;;4366855;28;657680;-67
2022/11/07 05:18:56;;;;;;;37.77;16.27;;;7.80;99.90;;;;;;4367710;28;658670;-68
2022/11/07 05:21:44;;;;;;;30.60;14.93;;;7.80;99.90;;;;;;4381189;28;657554;-68
2022/11/07 05:24:30;;;;;;;32.97;15.63;;;7.80;99.90;;;;;;4358033;28;657550;-68
2022/11/07 05:27:17;;;;;;;29.43;14.37;;;7.80;99.90;;;;;;4380676;28;659012;-68
2022/11/07 05:30:08;;;;;;;32.50;15.03;;;7.80;99.90;;;;;;4377229;28;657983;-67
2022/11/07 05:32:55;;;;;;;36.20;14.83;;;7.80;99.90;;;;;;4373426;28;657860;-67
2022/11/07 05:35:42;;;;;;;29.40;14.83;;;7.80;99.90;;;;;;4384859;28;658862;-68
2022/11/07 05:38:29;;;;;;;34.47;17.60;;;7.80;99.90;;;;;;4380725;28;657804;-68
2022/11/07 05:41:17;;;;;;;34.13;17.07;;;7.80;99.90;;;;;;4372219;28;657842;-67
2022/11/07 05:44:05;;;;;;;34.17;16.67;;;7.80;99.90;;;;;;4395989;28;657542;-68
2022/11/07 05:46:53;;;;;;;31.10;15.10;;;7.80;99.90;;;;;;4367661;28;659110;-67
2022/11/07 05:49:40;;;;;;;35.17;16.57;;;7.80;99.90;;;;;;4377994;28;657826;-67
2022/11/07 05:52:28;;;;;;;34.17;16.30;;;7.80;99.90;;;;;;4397181;28;658738;-67
2022/11/07 05:55:15;;;;;;;33.37;15.67;;;7.80;99.90;;;;;;4390153;28;657561;-67
2022/11/07 05:58:08;;;;;;;34.53;15.30;;;7.80;99.90;;;;;;4408770;28;657796;-68
2022/11/07 06:00:56;;;;;;;30.00;14.23;;;7.60;99.90;;;;;;4373443;28;657974;-67
2022/11/07 06:03:45;;;;;;;28.33;14.87;;;7.60;99.90;;;;;;4416149;28;658713;-68
2022/11/07 06:06:32;;;;;;;31.20;15.00;;;7.60;99.90;;;;;;4394820;28;659008;-67
2022/11/07 06:09:19;;;;;;;31.70;14.13;;;7.60;99.90;;;;;;4417712;28;657491;-67
2022/11/07 06:12:07;;;;;;;26.80;13.07;;;7.70;99.90;;;;;;4398906;28;658080;-67
2022/11/07 06:14:54;;;;;;;28.00;14.23;;;7.60;99.90;;;;;;4417161;28;657255;-68
2022/11/07 06:17:41;;;;;;;25.83;13.40;;;7.70;99.90;;;;;;4398510;28;657594;-67
2022/11/07 06:20:30;;;;;;;29.80;14.03;;;7.70;99.90;;;;;;4417589;28;658247;-68
2022/11/07 06:23:17;;;;;;;23.60;12.93;;;7.70;99.90;;;;;;4394413;28;659465;-67
2022/11/07 06:26:05;;;;;;;32.13;13.00;;;7.80;99.90;;;;;;4417108;28;656984;-68
2022/11/07 06:28:52;;;;;;;32.90;13.83;;;7.80;99.90;;;;;;4417173;28;658642;-67
2022/11/07 06:31:40;;;;;;;25.33;13.43;;;7.90;99.90;;;;;;4413602;28;657756;-67
2022/11/07 06:34:27;;;;;;;33.00;14.20;;;8.00;99.90;;;;;;4421283;28;659228;-68
2022/11/07 06:37:16;;;;;;;31.00;13.63;;;8.10;99.90;;;;;;4414148;28;657670;-68
2022/11/07 06:40:04;;;;;;;27.67;13.97;;;8.10;99.90;;;;;;4415987;28;657945;-67
2022/11/07 06:42:51;;;;;;;30.40;13.80;;;8.00;99.90;;;;;;4397307;28;657576;-68
2022/11/07 06:45:38;;;;;;;27.97;12.70;;;8.00;99.90;;;;;;4415990;28;658220;-67
2022/11/07 06:48:26;;;;;;;27.87;12.53;;;7.90;99.90;;;;;;4396677;28;657980;-67
2022/11/07 06:51:13;;;;;;;29.60;12.83;;;7.90;99.90;;;;;;4419832;28;658361;-68
2022/11/07 06:54:02;;;;;;;26.23;11.82;;;8.00;99.90;;;;;;4401087;28;657529;-67
2022/11/07 06:56:49;;;;;;;28.73;12.93;;;8.10;99.90;;;;;;4415591;28;657395;-67
2022/11/07 06:59:36;;;;;;;35.00;15.37;;;8.10;99.90;;;;;;4379938;28;657436;-67
2022/11/07 07:02:23;;;;;;;36.07;16.27;;;8.20;99.90;;;;;;4402466;28;659117;-69
2022/11/07 07:05:10;;;;;;;34.27;16.03;;;8.30;99.90;;;;;;4381400;28;657700;-68
2022/11/07 07:07:57;;;;;;;33.73;14.73;;;8.40;99.90;;;;;;4403384;28;659272;-68
2022/11/07 07:10:46;;;;;;;25.27;12.77;;;8.50;99.90;;;;;;4398891;28;657802;-67
2022/11/07 07:13:33;;;;;;;28.80;13.27;;;8.50;99.90;;;;;;4375839;28;659049;-67
2022/11/07 07:16:20;;;;;;;28.70;14.00;;;8.60;99.90;;;;;;4380463;28;658620;-68
2022/11/07 07:19:07;;;;;;;27.20;14.47;;;8.60;99.90;;;;;;4402952;28;658701;-67
2022/11/07 07:21:54;;;;;;;32.47;15.00;;;8.60;99.90;;;;;;4398813;28;657601;-67
2022/11/07 07:24:41;;;;;;;30.97;15.20;;;8.70;99.90;;;;;;4380246;28;657893;-67
2022/11/07 07:27:30;;;;;;;32.33;15.93;;;8.70;99.90;;;;;;4398555;28;657383;-68
2022/11/07 07:30:17;;;;;;;28.25;14.68;;;8.70;99.90;;;;;;4379855;28;658189;-68
2022/11/07 07:33:04;;;;;;;27.17;13.97;;;8.80;99.90;;;;;;4398639;28;657132;-68
2022/11/07 07:35:52;;;;;;;27.90;12.87;;;9.00;99.90;;;;;;4375701;28;659262;-67
2022/11/07 07:38:39;;;;;;;23.57;12.77;;;9.10;99.90;;;;;;4398304;28;657129;-68
2022/11/07 07:41:26;;;;;;;25.50;13.63;;;9.10;99.90;;;;;;4391618;28;657438;-67
2022/11/07 07:44:14;;;;;;;27.67;13.90;;;9.10;99.90;;;;;;4414801;28;658460;-68
2022/11/07 07:47:02;;;;;;;35.07;16.50;;;9.10;99.90;;;;;;4391949;28;659370;-68
2022/11/07 07:49:49;;;;;;;32.80;15.63;;;9.20;99.90;;;;;;4413737;28;657706;-68
2022/11/07 07:52:36;;;;;;;32.70;16.30;;;9.50;99.90;;;;;;4395836;28;657195;-67
2022/11/07 07:55:23;;;;;;;29.53;14.87;;;9.60;99.90;;;;;;4414534;28;658296;-67
2022/11/07 07:58:10;;;;;;;35.23;16.73;;;9.80;99.90;;;;;;4396167;28;657548;-68
2022/11/07 08:00:59;;;;;;;37.20;16.27;;;10.00;99.90;;;;;;4415329;28;658428;-68
2022/11/07 08:03:46;;;;;;;38.33;18.57;;;10.00;99.90;;;;;;4395707;28;658687;-68
2022/11/07 08:06:34;;;;;;;38.67;18.53;;;10.00;99.90;;;;;;4414238;28;659248;-68
2022/11/07 08:09:21;;;;;;;37.83;19.87;;;10.00;99.90;;;;;;4395480;28;658580;-67
2022/11/07 08:12:08;;;;;;;42.10;20.30;;;9.80;99.90;;;;;;4414406;28;659525;-68
2022/11/07 08:14:55;;;;;;;46.57;19.87;;;9.80;99.90;;;;;;4396365;28;657897;-67
2022/11/07 08:17:44;;;;;;;49.63;16.37;;;9.80;99.90;;;;;;4414838;28;657502;-68
2022/11/07 08:20:31;;;;;;;41.37;18.97;;;9.70;99.90;;;;;;4392656;28;658736;-68
2022/11/07 08:23:19;;;;;;;36.87;17.77;;;9.60;99.90;;;;;;4415435;28;657706;-67
2022/11/07 08:26:06;;;;;;;41.43;18.67;;;9.60;99.90;;;;;;4393663;28;657614;-67
2022/11/07 08:28:53;;;;;;;35.67;16.90;;;9.70;99.90;;;;;;4415474;28;659142;-68
2022/11/07 08:31:41;;;;;;;42.53;18.53;;;9.70;99.90;;;;;;4396282;28;657485;-67
2022/11/07 08:34:29;;;;;;;34.47;17.57;;;9.90;99.90;;;;;;4418144;28;658536;-68
2022/11/07 08:37:16;;;;;;;38.53;17.37;;;10.10;99.90;;;;;;4392773;28;657794;-67
2022/11/07 08:40:04;;;;;;;38.17;18.77;;;10.10;99.90;;;;;;4413716;28;659556;-67
2022/11/07 08:42:51;;;;;;;35.33;17.63;;;10.00;99.90;;;;;;4394991;28;658383;-67
2022/11/07 08:45:38;;;;;;;34.72;17.25;;;9.90;99.90;;;;;;4413625;28;660229;-68
2022/11/07 08:48:25;;;;;;;38.13;17.73;;;10.00;99.90;;;;;;4395939;28;657714;-67
2022/11/07 08:51:14;;;;;;;37.47;16.07;;;9.90;99.90;;;;;;4413881;28;659836;-68
2022/11/07 08:54:01;;;;;;;32.53;15.43;;;10.00;99.90;;;;;;4396021;28;657488;-68
2022/11/07 08:56:48;;;;;;;31.85;15.80;;;9.90;99.90;;;;;;4412748;28;659647;-67
2022/11/07 08:59:35;;;;;;;31.73;15.53;;;9.70;99.90;;;;;;4378366;28;657563;-66
2022/11/07 09:02:23;;;;;;;30.37;15.03;;;9.70;99.90;;;;;;4397167;28;658798;-68
2022/11/07 09:05:10;;;;;;;30.70;13.10;;;9.80;99.90;;;;;;4383340;28;657939;-67
2022/11/07 09:07:59;;;;;;;24.47;11.63;;;9.70;99.90;;;;;;4391072;28;658775;-67
2022/11/07 09:10:46;;;;;;;23.53;10.80;;;9.70;99.90;;;;;;4375531;28;658261;-68
2022/11/07 09:13:33;;;;;;;22.73;10.27;;;9.70;99.90;;;;;;4399949;28;658390;-67
2022/11/07 09:16:20;;;;;;;18.83;10.07;;;9.80;99.90;;;;;;4378299;28;657603;-67
2022/11/07 09:19:08;;;;;;;26.20;9.53;;;9.70;99.90;;;;;;4396664;28;658640;-67
2022/11/07 09:21:56;;;;;;;15.23;6.13;;;9.80;99.90;;;;;;4389408;28;656518;-67
2022/11/07 09:24:44;;;;;;;18.60;8.93;;;9.90;99.90;;;;;;4399407;28;657291;-68
2022/11/07 09:27:31;;;;;;;17.80;7.40;;;10.00;99.90;;;;;;4374227;28;657647;-68
2022/11/07 09:30:18;;;;;;;20.63;9.07;;;10.10;99.90;;;;;;4395844;28;660005;-68
2022/11/07 09:33:06;;;;;;;13.37;7.23;;;10.10;99.90;;;;;;4376527;28;658650;-67
2022/11/07 09:35:53;;;;;;;14.17;6.70;;;10.10;99.90;;;;;;4399298;28;659545;-67
2022/11/07 09:38:40;;;;;;;13.63;7.10;;;10.10;99.90;;;;;;4378624;28;658862;-67
2022/11/07 09:41:34;;;;;;;13.30;5.95;;;9.90;99.90;;;;;;4411942;28;659858;-67
2022/11/07 09:44:28;;;;;;;12.90;5.47;;;10.20;99.90;;;;;;4367524;28;658095;-67
2022/11/07 09:47:19;;;;;;;13.70;5.27;;;10.30;99.90;;;;;;4366680;28;658867;-68
2022/11/07 09:50:11;;;;;;;9.20;4.30;;;10.20;99.90;;;;;;4389032;28;659842;-68
2022/11/07 09:53:00;;;;;;;7.83;4.27;;;10.30;99.90;;;;;;4390427;28;658696;-67
2022/11/07 09:55:49;;;;;;;8.50;3.93;;;10.20;99.90;;;;;;4389971;28;658623;-67
2022/11/07 09:58:40;;;;;;;5.63;3.30;;;10.10;99.90;;;;;;4394779;28;657582;-67
2022/11/07 10:01:28;;;;;;;10.90;4.30;;;10.10;99.90;;;;;;4395471;28;658360;-68
2022/11/07 10:04:16;;;;;;;7.77;3.90;;;10.10;99.90;;;;;;4398811;28;658456;-67
2022/11/07 10:07:05;;;;;;;6.23;3.37;;;10.20;99.90;;;;;;4413966;28;658544;-68
2022/11/07 10:09:55;;;;;;;7.07;3.43;;;10.20;99.90;;;;;;4391132;28;658870;-67
2022/11/07 10:13:05;;;;;;;9.67;3.80;;;10.20;99.90;;;;;;4389320;28;657631;-68
2022/11/07 10:16:00;;;;;;;11.90;3.50;;;10.20;99.90;;;;;;4368249;28;658491;-67
2022/11/07 10:18:54;;;;;;;11.80;4.30;;;10.20;99.90;;;;;;4366934;28;659428;-68
2022/11/07 10:21:43;;;;;;;8.13;3.30;;;10.10;99.90;;;;;;4389419;28;658697;-68
2022/11/07 10:24:38;;;;;;;7.63;3.30;;;10.20;99.90;;;;;;4394864;28;657491;-68
2022/11/07 10:27:26;;;;;;;9.27;3.50;;;10.10;99.90;;;;;;4394610;28;658367;-66
2022/11/07 10:30:15;;;;;;;7.10;3.03;;;10.20;99.90;;;;;;4413650;28;658736;-67
2022/11/07 10:33:06;;;;;;;7.53;3.40;;;10.30;99.90;;;;;;4391032;28;658946;-67
2022/11/07 10:35:56;;;;;;;5.50;2.67;;;10.30;99.90;;;;;;4394977;28;657391;-67
2022/11/07 10:38:43;;;;;;;8.30;3.77;;;10.50;99.90;;;;;;4390828;28;658593;-67
2022/11/07 10:41:32;;;;;;;12.90;4.13;;;10.30;99.90;;;;;;4394669;28;657716;-67
2022/11/07 10:44:22;;;;;;;8.63;4.23;;;10.40;99.90;;;;;;4412522;28;658874;-68
2022/11/07 10:47:16;;;;;;;4.33;1.83;;;10.60;99.90;;;;;;4391113;28;657694;-67
2022/11/07 10:50:16;;;;;;;8.60;3.70;;;10.70;99.90;;;;;;4392572;28;657575;-68
2022/11/07 10:53:08;;;;;;;8.90;3.77;;;10.40;99.90;;;;;;4394099;28;657820;-67
2022/11/07 10:55:55;;;;;;;5.63;3.33;;;10.50;99.90;;;;;;4375542;28;657848;-67
2022/11/07 10:58:45;;;;;;;12.07;3.70;;;10.60;99.90;;;;;;4407399;28;658887;-67
2022/11/07 11:01:32;;;;;;;5.27;3.57;;;11.00;99.90;;;;;;4367799;28;660861;-68
2022/11/07 11:04:21;;;;;;;9.40;4.13;;;11.00;99.90;;;;;;4396681;28;657813;-67
2022/11/07 11:07:11;;;;;;;8.13;4.00;;;10.90;99.90;;;;;;4398860;28;658247;-67
2022/11/07 11:09:59;;;;;;;9.53;4.27;;;11.20;99.90;;;;;;4374728;28;657815;-68
2022/11/07 11:12:46;;;;;;;10.53;4.10;;;10.90;99.90;;;;;;4379481;28;657815;-67
2022/11/07 11:15:43;;;;;;;10.80;4.00;;;10.80;99.90;;;;;;4397174;28;659245;-67
2022/11/07 11:18:30;;;;;;;10.93;4.43;;;11.50;99.90;;;;;;4354181;28;658594;-67
2022/11/07 11:21:18;;;;;;;7.30;4.10;;;11.30;99.90;;;;;;4396907;28;659421;-67
2022/11/07 11:24:13;;;;;;;8.67;4.50;;;11.60;99.90;;;;;;4388969;28;657296;-67
2022/11/07 11:27:02;;;;;;;6.87;3.30;;;11.50;99.90;;;;;;4356688;28;658678;-67
2022/11/07 11:29:53;;;;;;;6.63;3.37;;;11.40;99.90;;;;;;4391392;28;658108;-68
2022/11/07 11:32:42;;;;;;;9.97;3.53;;;11.70;99.90;;;;;;4369918;28;658007;-66
2022/11/07 11:35:34;;;;;;;10.27;3.27;;;12.00;99.90;;;;;;4398878;28;658874;-67
2022/11/07 11:38:24;;;;;;;6.87;2.43;;;12.30;99.90;;;;;;4378574;28;659092;-68
2022/11/07 11:41:16;;;;;;;6.97;4.20;;;12.20;99.90;;;;;;4390726;28;657599;-67
2022/11/07 11:44:06;;;;;;;7.28;3.50;;;11.70;99.90;;;;;;4391096;28;657771;-67
2022/11/07 11:46:58;;;;;;;7.60;3.53;;;11.70;99.90;;;;;;4393247;28;658884;-67
2022/11/07 11:49:46;;;;;;;8.43;3.97;;;11.70;99.90;;;;;;4387625;28;657548;-67
2022/11/07 11:52:34;;;;;;;6.70;3.73;;;12.20;99.90;;;;;;4415798;28;658675;-68
2022/11/07 11:55:21;;;;;;;6.87;3.60;;;12.50;99.90;;;;;;4396962;28;657464;-67
2022/11/07 11:58:17;;;;;;;6.83;3.53;;;12.40;99.90;;;;;;4411872;28;657620;-68
2022/11/07 12:01:07;;;;;;;5.00;3.40;;;12.50;99.90;;;;;;4392395;28;657776;-67
2022/11/07 12:04:16;;;;;;;7.70;3.50;;;12.50;99.90;;;;;;4392204;28;657817;-67
2022/11/07 12:07:05;;;;;;;8.47;3.37;;;12.60;99.90;;;;;;4392887;28;657667;-67
2022/11/07 12:09:53;;;;;;;8.47;4.03;;;13.30;99.90;;;;;;4396820;28;658784;-67
2022/11/07 12:12:46;;;;;;;8.50;3.67;;;14.60;96.70;;;;;;4396512;28;657613;-67
2022/11/07 12:15:43;;;;;;;6.40;3.03;;;14.70;92.80;;;;;;4392485;28;659522;-67
2022/11/07 12:18:33;;;;;;;9.63;4.10;;;14.60;91.60;;;;;;4377483;28;657831;-66
2022/11/07 12:21:26;;;;;;;9.37;3.57;;;15.00;92.40;;;;;;4396620;28;657929;-66
2022/11/07 12:24:37;;;;;;;5.10;2.40;;;15.80;86.20;;;;;;4392431;28;658815;-67
2022/11/07 12:27:28;;;;;;;8.10;4.37;;;15.30;84.80;;;;;;4392402;28;657689;-67
2022/11/07 12:30:19;;;;;;;6.13;3.23;;;13.90;89.20;;;;;;4373575;28;657627;-66
2022/11/07 12:33:14;;;;;;;8.90;3.90;;;13.80;91.40;;;;;;4396402;28;658568;-67
2022/11/07 12:36:02;;;;;;;4.70;3.30;;;13.70;91.10;;;;;;4395919;28;658545;-67
2022/11/07 12:38:59;;;;;;;6.63;3.40;;;13.50;91.50;;;;;;4415218;28;657683;-67
2022/11/07 12:41:50;;;;;;;7.47;4.00;;;13.80;90.40;;;;;;4371408;28;657557;-67
2022/11/07 12:44:46;;;;;;;6.13;3.70;;;13.60;92.10;;;;;;4396284;28;658679;-66
2022/11/07 12:47:45;;;;;;;8.17;4.17;;;13.90;91.80;;;;;;4392139;28;658141;-66
2022/11/07 12:50:39;;;;;;;6.83;3.83;;;14.10;91.90;;;;;;4369142;28;658378;-67
2022/11/07 12:53:33;;;;;;;11.97;3.87;;;14.30;91.20;;;;;;4396301;28;657322;-67
2022/11/07 12:56:21;;;;;;;7.17;4.10;;;14.10;90.00;;;;;;4382149;28;658746;-66
2022/11/07 12:59:13;;;;;;;12.53;4.67;;;14.00;91.30;;;;;;4410899;28;658570;-67
2022/11/07 13:02:02;;;;;;;11.53;4.50;;;15.30;89.10;;;;;;4369656;28;658360;-66
2022/11/07 13:04:51;;;;;;;6.70;3.73;;;15.60;84.90;;;;;;4413234;28;658958;-67
2022/11/07 13:07:40;;;;;;;10.50;4.67;;;15.60;84.50;;;;;;4391994;28;659945;-67
2022/11/07 13:10:30;;;;;;;9.47;4.73;;;14.80;85.60;;;;;;4390488;28;659444;-67
2022/11/07 13:13:19;;;;;;;9.83;4.60;;;15.00;88.60;;;;;;4389220;28;658431;-67
2022/11/07 13:16:07;;;;;;;10.13;4.17;;;15.50;89.10;;;;;;4392001;28;658098;-67
2022/11/07 13:18:54;;;;;;;8.30;3.97;;;16.30;83.40;;;;;;4413139;28;658737;-67
2022/11/07 13:21:42;;;;;;;11.60;4.97;;;16.90;83.10;;;;;;4395836;28;657906;-67
2022/11/07 13:24:31;;;;;;;6.00;3.47;;;18.00;81.10;;;;;;4413055;28;658589;-66
2022/11/07 13:27:21;;;;;;;6.83;3.93;;;16.80;74.70;;;;;;4391430;28;659094;-67
2022/11/07 13:30:19;;;;;;;6.95;3.38;;;15.90;80.70;;;;;;4387611;28;657592;-67
2022/11/07 13:33:07;;;;;;;8.10;3.63;;;15.40;81.70;;;;;;4372709;28;658249;-66
2022/11/07 13:35:56;;;;;;;7.70;3.53;;;15.80;80.90;;;;;;4410806;28;658209;-66
2022/11/07 13:38:48;;;;;;;7.50;3.57;;;17.10;79.60;;;;;;4414312;28;658295;-67
2022/11/07 13:41:36;;;;;;;7.20;4.03;;;17.80;74.60;;;;;;4376306;28;658304;-66
2022/11/07 13:44:26;;;;;;;5.83;3.20;;;14.50;79.20;;;;;;4413870;28;657871;-66
2022/11/07 13:47:15;;;;;;;5.07;2.70;;;13.60;88.20;;;;;;4391342;28;658707;-67
2022/11/07 13:50:07;;;;;;;7.37;2.93;;;13.60;90.50;;;;;;4395262;28;657884;-67
2022/11/07 13:52:57;;;;;;;8.13;4.10;;;13.30;93.10;;;;;;4391398;28;657217;-66
2022/11/07 13:55:47;;;;;;;7.87;4.13;;;12.80;94.60;;;;;;4387194;28;657658;-66
2022/11/07 13:58:36;;;;;;;9.60;4.17;;;12.80;96.80;;;;;;4410771;28;657474;-67
2022/11/07 14:01:23;;;;;;;7.70;4.10;;;14.00;94.40;;;;;;4391312;28;659050;-66
2022/11/07 14:04:14;;;;;;;8.97;3.70;;;13.60;92.50;;;;;;4395154;28;657813;-66
2022/11/07 14:07:02;;;;;;;11.87;4.03;;;13.80;92.10;;;;;;4391239;28;660109;-66
2022/11/07 14:09:49;;;;;;;7.87;3.47;;;13.30;93.50;;;;;;4410276;28;659012;-67
2022/11/07 14:12:37;;;;;;;8.30;3.93;;;13.70;92.40;;;;;;4392508;28;657700;-66
2022/11/07 14:15:26;;;;;;;7.17;3.73;;;13.40;94.30;;;;;;4413715;28;658207;-66
2022/11/07 14:18:14;;;;;;;11.23;4.47;;;13.70;92.90;;;;;;4391291;28;658284;-67
2022/11/07 14:21:01;;;;;;;10.83;4.23;;;14.70;91.00;;;;;;4392534;28;658903;-66
2022/11/07 14:23:48;;;;;;;9.30;3.60;;;15.20;89.30;;;;;;4413697;28;659693;-67
2022/11/07 14:26:36;;;;;;;9.23;3.73;;;13.50;90.70;;;;;;4398540;28;657819;-66
2022/11/07 14:29:23;;;;;;;10.07;3.57;;;13.90;91.80;;;;;;4421053;28;658882;-66